sensor_id;sensor_type;location;lat;lon;timestamp;temperature;humidity
13742;DHT22;8461;52.356;10.704;2022-07-10T00:00:34;14.40;99.90
13742;DHT22;8461;52.356;10.704;2022-07-10T00:03:01;14.50;99.90
13742;DHT22;8461;52.356;10.704;2022-07-10T00:05:26;14.40;99.90
13742;DHT22;8461;52.356;10.704;2022-07-10T00:07:52;14.40;99.90
13742;DHT22;8461;52.356;10.704;2022-07-10T00:10:19;14.40;99.90
13742;DHT22;8461;52.356;10.704;2022-07-10T00:12:46;14.30;99.90
13742;DHT22;8461;52.356;10.704;2022-07-10T00:15:12;14.40;99.90
13742;DHT22;8461;52.356;10.704;2022-07-10T00:17:38;14.50;99.90
13742;DHT22;8461;52.356;10.704;2022-07-10T00:20:05;14.30;99.90
13742;DHT22;8461;52.356;10.704;2022-07-10T00:22:33;14.30;99.90
13742;DHT22;8461;52.356;10.704;2022-07-10T00:25:01;14.20;99.90
13742;DHT22;8461;52.356;10.704;2022-07-10T00:27:26;14.20;99.90
13742;DHT22;8461;52.356;10.704;2022-07-10T00:29:52;14.10;99.90
13742;DHT22;8461;52.356;10.704;2022-07-10T00:32:17;14.10;99.90
13742;DHT22;8461;52.356;10.704;2022-07-10T00:34:43;14.10;99.90
13742;DHT22;8461;52.356;10.704;2022-07-10T00:37:08;14.10;99.90
13742;DHT22;8461;52.356;10.704;2022-07-10T00:39:34;14.10;99.90
13742;DHT22;8461;52.356;10.704;2022-07-10T00:42:11;14.10;99.90
13742;DHT22;8461;52.356;10.704;2022-07-10T00:44:37;14.00;99.90
13742;DHT22;8461;52.356;10.704;2022-07-10T00:47:04;14.00;99.90
13742;DHT22;8461;52.356;10.704;2022-07-10T00:49:30;14.00;99.90
13742;DHT22;8461;52.356;10.704;2022-07-10T00:51:57;13.80;99.90
13742;DHT22;8461;52.356;10.704;2022-07-10T00:54:23;13.80;99.90
13742;DHT22;8461;52.356;10.704;2022-07-10T00:56:49;13.80;99.90
13742;DHT22;8461;52.356;10.704;2022-07-10T00:59:14;13.90;99.90
13742;DHT22;8461;52.356;10.704;2022-07-10T01:01:40;13.90;99.90
13742;DHT22;8461;52.356;10.704;2022-07-10T01:04:06;14.00;99.90
13742;DHT22;8461;52.356;10.704;2022-07-10T01:06:31;13.90;99.90
13742;DHT22;8461;52.356;10.704;2022-07-10T01:08:58;13.80;99.90
13742;DHT22;8461;52.356;10.704;2022-07-10T01:11:23;13.60;99.90
13742;DHT22;8461;52.356;10.704;2022-07-10T01:13:49;13.60;99.90
13742;DHT22;8461;52.356;10.704;2022-07-10T01:16:15;13.50;99.90
13742;DHT22;8461;52.356;10.704;2022-07-10T01:18:41;13.40;99.90
13742;DHT22;8461;52.356;10.704;2022-07-10T01:21:23;13.20;99.90
13742;DHT22;8461;52.356;10.704;2022-07-10T01:23:49;12.90;99.90
13742;DHT22;8461;52.356;10.704;2022-07-10T01:26:15;12.90;99.90
13742;DHT22;8461;52.356;10.704;2022-07-10T01:28:41;12.80;99.90
13742;DHT22;8461;52.356;10.704;2022-07-10T01:31:06;12.70;99.90
13742;DHT22;8461;52.356;10.704;2022-07-10T01:33:32;12.60;99.90
13742;DHT22;8461;52.356;10.704;2022-07-10T01:35:57;12.60;99.90
13742;DHT22;8461;52.356;10.704;2022-07-10T01:38:23;12.50;99.90
13742;DHT22;8461;52.356;10.704;2022-07-10T01:40:49;12.40;99.90
13742;DHT22;8461;52.356;10.704;2022-07-10T01:43:14;12.50;99.90
13742;DHT22;8461;52.356;10.704;2022-07-10T01:45:40;12.60;99.90
13742;DHT22;8461;52.356;10.704;2022-07-10T01:48:05;12.70;99.90
13742;DHT22;8461;52.356;10.704;2022-07-10T01:50:31;12.70;99.90
13742;DHT22;8461;52.356;10.704;2022-07-10T01:52:56;12.70;99.90
13742;DHT22;8461;52.356;10.704;2022-07-10T01:55:23;12.70;99.90
13742;DHT22;8461;52.356;10.704;2022-07-10T01:57:48;12.80;99.90
13742;DHT22;8461;52.356;10.704;2022-07-10T02:00:14;12.90;99.90
13742;DHT22;8461;52.356;10.704;2022-07-10T02:02:39;12.90;99.90
13742;DHT22;8461;52.356;10.704;2022-07-10T02:05:05;12.80;99.90
13742;DHT22;8461;52.356;10.704;2022-07-10T02:07:31;12.80;99.90
13742;DHT22;8461;52.356;10.704;2022-07-10T02:09:57;12.80;99.90
13742;DHT22;8461;52.356;10.704;2022-07-10T02:12:22;12.80;99.90
13742;DHT22;8461;52.356;10.704;2022-07-10T02:14:48;12.80;99.90
13742;DHT22;8461;52.356;10.704;2022-07-10T02:17:14;12.90;99.90
13742;DHT22;8461;52.356;10.704;2022-07-10T02:19:41;12.80;99.90
13742;DHT22;8461;52.356;10.704;2022-07-10T02:22:06;12.80;99.90
13742;DHT22;8461;52.356;10.704;2022-07-10T02:24:32;12.80;99.90
13742;DHT22;8461;52.356;10.704;2022-07-10T02:26:57;12.90;99.90
13742;DHT22;8461;52.356;10.704;2022-07-10T02:29:23;13.00;99.90
13742;DHT22;8461;52.356;10.704;2022-07-10T02:31:49;12.90;99.90
13742;DHT22;8461;52.356;10.704;2022-07-10T02:34:15;12.90;99.90
13742;DHT22;8461;52.356;10.704;2022-07-10T02:36:41;13.00;99.90
13742;DHT22;8461;52.356;10.704;2022-07-10T02:39:08;12.90;99.90
13742;DHT22;8461;52.356;10.704;2022-07-10T02:41:34;13.00;99.90
13742;DHT22;8461;52.356;10.704;2022-07-10T02:44:01;12.90;99.90
13742;DHT22;8461;52.356;10.704;2022-07-10T02:46:26;12.80;99.90
13742;DHT22;8461;52.356;10.704;2022-07-10T02:48:52;12.70;99.90
13742;DHT22;8461;52.356;10.704;2022-07-10T02:51:17;12.70;99.90
13742;DHT22;8461;52.356;10.704;2022-07-10T02:53:43;12.80;99.90
13742;DHT22;8461;52.356;10.704;2022-07-10T02:56:08;12.80;99.90
13742;DHT22;8461;52.356;10.704;2022-07-10T02:58:34;12.80;99.90
13742;DHT22;8461;52.356;10.704;2022-07-10T03:01:00;12.90;99.90
13742;DHT22;8461;52.356;10.704;2022-07-10T03:03:25;13.00;99.90
13742;DHT22;8461;52.356;10.704;2022-07-10T03:05:51;13.00;99.90
13742;DHT22;8461;52.356;10.704;2022-07-10T03:08:17;13.00;99.90
13742;DHT22;8461;52.356;10.704;2022-07-10T03:10:43;13.00;99.90
13742;DHT22;8461;52.356;10.704;2022-07-10T03:13:08;13.00;99.90
13742;DHT22;8461;52.356;10.704;2022-07-10T03:15:34;13.00;99.90
13742;DHT22;8461;52.356;10.704;2022-07-10T03:17:59;12.90;99.90
13742;DHT22;8461;52.356;10.704;2022-07-10T03:20:25;12.80;99.90
13742;DHT22;8461;52.356;10.704;2022-07-10T03:22:51;12.90;99.90
13742;DHT22;8461;52.356;10.704;2022-07-10T03:25:16;12.90;99.90
13742;DHT22;8461;52.356;10.704;2022-07-10T03:27:42;12.80;99.90
13742;DHT22;8461;52.356;10.704;2022-07-10T03:30:08;12.90;99.90
13742;DHT22;8461;52.356;10.704;2022-07-10T03:32:34;12.90;99.90
13742;DHT22;8461;52.356;10.704;2022-07-10T03:35:00;13.00;99.90
13742;DHT22;8461;52.356;10.704;2022-07-10T03:37:26;13.00;99.90
13742;DHT22;8461;52.356;10.704;2022-07-10T03:39:51;13.00;99.90
13742;DHT22;8461;52.356;10.704;2022-07-10T03:42:17;12.80;99.90
13742;DHT22;8461;52.356;10.704;2022-07-10T03:44:42;12.80;99.90
13742;DHT22;8461;52.356;10.704;2022-07-10T03:47:08;12.70;99.90
13742;DHT22;8461;52.356;10.704;2022-07-10T03:49:34;12.80;99.90
13742;DHT22;8461;52.356;10.704;2022-07-10T03:52:00;12.80;99.90
13742;DHT22;8461;52.356;10.704;2022-07-10T03:54:26;12.80;99.90
13742;DHT22;8461;52.356;10.704;2022-07-10T03:56:52;12.80;99.90
13742;DHT22;8461;52.356;10.704;2022-07-10T03:59:36;12.80;99.90
13742;DHT22;8461;52.356;10.704;2022-07-10T04:02:02;12.90;99.90
13742;DHT22;8461;52.356;10.704;2022-07-10T04:04:28;12.60;99.90
13742;DHT22;8461;52.356;10.704;2022-07-10T04:06:53;12.60;99.90
13742;DHT22;8461;52.356;10.704;2022-07-10T04:09:19;12.50;99.90
13742;DHT22;8461;52.356;10.704;2022-07-10T04:11:44;12.50;99.90
13742;DHT22;8461;52.356;10.704;2022-07-10T04:14:10;12.50;99.90
13742;DHT22;8461;52.356;10.704;2022-07-10T04:16:36;12.50;99.90
13742;DHT22;8461;52.356;10.704;2022-07-10T04:19:01;12.60;99.90
13742;DHT22;8461;52.356;10.704;2022-07-10T04:21:27;12.70;99.90
13742;DHT22;8461;52.356;10.704;2022-07-10T04:23:53;12.70;99.90
13742;DHT22;8461;52.356;10.704;2022-07-10T04:26:19;12.80;99.90
13742;DHT22;8461;52.356;10.704;2022-07-10T04:28:44;12.60;99.90
13742;DHT22;8461;52.356;10.704;2022-07-10T04:31:10;12.70;99.90
13742;DHT22;8461;52.356;10.704;2022-07-10T04:33:35;12.60;99.90
13742;DHT22;8461;52.356;10.704;2022-07-10T04:36:01;12.60;99.90
13742;DHT22;8461;52.356;10.704;2022-07-10T04:38:26;12.60;99.90
13742;DHT22;8461;52.356;10.704;2022-07-10T04:40:52;12.70;99.90
13742;DHT22;8461;52.356;10.704;2022-07-10T04:43:17;12.70;99.90
13742;DHT22;8461;52.356;10.704;2022-07-10T04:45:43;12.70;99.90
13742;DHT22;8461;52.356;10.704;2022-07-10T04:48:08;12.70;99.90
13742;DHT22;8461;52.356;10.704;2022-07-10T04:50:34;12.80;99.90
13742;DHT22;8461;52.356;10.704;2022-07-10T04:52:59;12.70;99.90
13742;DHT22;8461;52.356;10.704;2022-07-10T04:55:25;12.70;99.90
13742;DHT22;8461;52.356;10.704;2022-07-10T04:57:51;12.80;99.90
13742;DHT22;8461;52.356;10.704;2022-07-10T05:00:16;12.80;99.90
13742;DHT22;8461;52.356;10.704;2022-07-10T05:02:42;12.90;99.90
13742;DHT22;8461;52.356;10.704;2022-07-10T05:05:08;12.90;99.90
13742;DHT22;8461;52.356;10.704;2022-07-10T05:07:34;13.10;99.90
13742;DHT22;8461;52.356;10.704;2022-07-10T05:09:59;13.00;99.90
13742;DHT22;8461;52.356;10.704;2022-07-10T05:12:25;12.90;99.90
13742;DHT22;8461;52.356;10.704;2022-07-10T05:14:51;13.00;99.90
13742;DHT22;8461;52.356;10.704;2022-07-10T05:17:16;13.10;99.90
13742;DHT22;8461;52.356;10.704;2022-07-10T05:19:42;13.10;99.90
13742;DHT22;8461;52.356;10.704;2022-07-10T05:22:08;13.00;99.90
13742;DHT22;8461;52.356;10.704;2022-07-10T05:24:35;13.10;99.90
13742;DHT22;8461;52.356;10.704;2022-07-10T05:27:00;13.10;99.90
13742;DHT22;8461;52.356;10.704;2022-07-10T05:29:26;13.00;99.90
13742;DHT22;8461;52.356;10.704;2022-07-10T05:31:51;13.00;99.90
13742;DHT22;8461;52.356;10.704;2022-07-10T05:34:17;13.00;99.90
13742;DHT22;8461;52.356;10.704;2022-07-10T05:36:42;13.10;99.90
13742;DHT22;8461;52.356;10.704;2022-07-10T05:39:08;13.10;99.90
13742;DHT22;8461;52.356;10.704;2022-07-10T05:41:34;13.00;99.90
13742;DHT22;8461;52.356;10.704;2022-07-10T05:44:00;13.10;99.90
13742;DHT22;8461;52.356;10.704;2022-07-10T05:46:25;13.00;99.90
13742;DHT22;8461;52.356;10.704;2022-07-10T05:48:51;13.30;99.90
13742;DHT22;8461;52.356;10.704;2022-07-10T05:51:17;13.30;99.90
13742;DHT22;8461;52.356;10.704;2022-07-10T05:53:42;13.40;99.90
13742;DHT22;8461;52.356;10.704;2022-07-10T05:56:08;13.40;99.90
13742;DHT22;8461;52.356;10.704;2022-07-10T05:58:33;13.50;99.90
13742;DHT22;8461;52.356;10.704;2022-07-10T06:00:59;13.40;99.90
13742;DHT22;8461;52.356;10.704;2022-07-10T06:03:25;13.50;99.90
13742;DHT22;8461;52.356;10.704;2022-07-10T06:05:50;13.50;99.90
13742;DHT22;8461;52.356;10.704;2022-07-10T06:08:16;13.60;99.90
13742;DHT22;8461;52.356;10.704;2022-07-10T06:10:41;13.70;99.90
13742;DHT22;8461;52.356;10.704;2022-07-10T06:13:09;13.80;99.90
13742;DHT22;8461;52.356;10.704;2022-07-10T06:15:35;13.90;99.90
13742;DHT22;8461;52.356;10.704;2022-07-10T06:18:01;13.90;99.90
13742;DHT22;8461;52.356;10.704;2022-07-10T06:20:26;13.90;99.90
13742;DHT22;8461;52.356;10.704;2022-07-10T06:22:52;13.80;99.90
13742;DHT22;8461;52.356;10.704;2022-07-10T06:25:18;13.90;99.90
13742;DHT22;8461;52.356;10.704;2022-07-10T06:27:44;14.00;99.90
13742;DHT22;8461;52.356;10.704;2022-07-10T06:30:09;14.10;99.90
13742;DHT22;8461;52.356;10.704;2022-07-10T06:32:35;14.10;99.90
13742;DHT22;8461;52.356;10.704;2022-07-10T06:35:01;14.10;99.90
13742;DHT22;8461;52.356;10.704;2022-07-10T06:37:27;14.10;99.90
13742;DHT22;8461;52.356;10.704;2022-07-10T06:39:53;14.10;99.90
13742;DHT22;8461;52.356;10.704;2022-07-10T06:42:18;14.20;99.90
13742;DHT22;8461;52.356;10.704;2022-07-10T06:44:44;14.40;99.90
13742;DHT22;8461;52.356;10.704;2022-07-10T06:47:12;14.60;99.90
13742;DHT22;8461;52.356;10.704;2022-07-10T06:49:56;14.50;99.90
13742;DHT22;8461;52.356;10.704;2022-07-10T06:52:22;14.60;99.90
13742;DHT22;8461;52.356;10.704;2022-07-10T06:54:48;14.70;99.90
13742;DHT22;8461;52.356;10.704;2022-07-10T06:57:14;14.70;99.90
13742;DHT22;8461;52.356;10.704;2022-07-10T06:59:39;14.70;99.90
13742;DHT22;8461;52.356;10.704;2022-07-10T07:02:05;14.70;99.90
13742;DHT22;8461;52.356;10.704;2022-07-10T07:04:31;14.90;99.90
13742;DHT22;8461;52.356;10.704;2022-07-10T07:06:56;14.90;99.90
13742;DHT22;8461;52.356;10.704;2022-07-10T07:09:22;15.00;99.90
13742;DHT22;8461;52.356;10.704;2022-07-10T07:11:47;15.10;99.90
13742;DHT22;8461;52.356;10.704;2022-07-10T07:14:13;15.20;99.90
13742;DHT22;8461;52.356;10.704;2022-07-10T07:16:38;15.20;99.90
13742;DHT22;8461;52.356;10.704;2022-07-10T07:19:07;15.30;99.90
13742;DHT22;8461;52.356;10.704;2022-07-10T07:21:33;15.30;99.90
13742;DHT22;8461;52.356;10.704;2022-07-10T07:24:17;15.40;99.90
13742;DHT22;8461;52.356;10.704;2022-07-10T07:26:44;15.40;99.90
13742;DHT22;8461;52.356;10.704;2022-07-10T07:29:13;15.40;99.90
13742;DHT22;8461;52.356;10.704;2022-07-10T07:31:38;15.50;99.90
13742;DHT22;8461;52.356;10.704;2022-07-10T07:34:04;15.50;99.90
13742;DHT22;8461;52.356;10.704;2022-07-10T07:36:30;15.50;99.90
13742;DHT22;8461;52.356;10.704;2022-07-10T07:38:56;15.50;99.90
13742;DHT22;8461;52.356;10.704;2022-07-10T07:41:22;15.70;99.90
13742;DHT22;8461;52.356;10.704;2022-07-10T07:43:48;15.80;99.90
13742;DHT22;8461;52.356;10.704;2022-07-10T07:46:14;15.70;99.90
13742;DHT22;8461;52.356;10.704;2022-07-10T07:48:39;15.50;99.90
13742;DHT22;8461;52.356;10.704;2022-07-10T07:51:06;15.40;99.90
13742;DHT22;8461;52.356;10.704;2022-07-10T07:53:31;15.20;99.90
13742;DHT22;8461;52.356;10.704;2022-07-10T07:55:57;15.50;99.90
13742;DHT22;8461;52.356;10.704;2022-07-10T07:58:22;15.70;99.90
13742;DHT22;8461;52.356;10.704;2022-07-10T08:00:48;15.80;99.90
13742;DHT22;8461;52.356;10.704;2022-07-10T08:03:13;16.00;99.90
13742;DHT22;8461;52.356;10.704;2022-07-10T08:05:39;16.00;99.90
13742;DHT22;8461;52.356;10.704;2022-07-10T08:08:04;15.90;99.90
13742;DHT22;8461;52.356;10.704;2022-07-10T08:10:33;15.80;99.90
13742;DHT22;8461;52.356;10.704;2022-07-10T08:12:59;15.80;99.90
13742;DHT22;8461;52.356;10.704;2022-07-10T08:15:24;15.90;99.90
13742;DHT22;8461;52.356;10.704;2022-07-10T08:17:54;16.10;99.90
13742;DHT22;8461;52.356;10.704;2022-07-10T08:20:21;16.00;99.90
13742;DHT22;8461;52.356;10.704;2022-07-10T08:22:47;16.00;99.90
13742;DHT22;8461;52.356;10.704;2022-07-10T08:25:14;16.10;99.90
13742;DHT22;8461;52.356;10.704;2022-07-10T08:27:40;16.10;99.90
13742;DHT22;8461;52.356;10.704;2022-07-10T08:30:06;16.00;99.90
13742;DHT22;8461;52.356;10.704;2022-07-10T08:32:34;16.00;99.90
13742;DHT22;8461;52.356;10.704;2022-07-10T08:34:59;16.00;99.90
13742;DHT22;8461;52.356;10.704;2022-07-10T08:37:25;16.20;99.90
13742;DHT22;8461;52.356;10.704;2022-07-10T08:39:50;16.50;99.90
13742;DHT22;8461;52.356;10.704;2022-07-10T08:42:18;16.60;99.90
13742;DHT22;8461;52.356;10.704;2022-07-10T08:44:44;16.60;99.90
13742;DHT22;8461;52.356;10.704;2022-07-10T08:47:09;16.60;99.90
13742;DHT22;8461;52.356;10.704;2022-07-10T08:49:45;16.50;99.90
13742;DHT22;8461;52.356;10.704;2022-07-10T08:52:25;16.60;99.90
13742;DHT22;8461;52.356;10.704;2022-07-10T08:54:52;16.70;99.90
13742;DHT22;8461;52.356;10.704;2022-07-10T08:57:18;16.70;99.90
13742;DHT22;8461;52.356;10.704;2022-07-10T08:59:44;16.60;99.90
13742;DHT22;8461;52.356;10.704;2022-07-10T09:02:10;16.50;99.90
13742;DHT22;8461;52.356;10.704;2022-07-10T09:04:35;16.50;99.90
13742;DHT22;8461;52.356;10.704;2022-07-10T09:07:01;16.50;99.90
13742;DHT22;8461;52.356;10.704;2022-07-10T09:09:27;16.50;99.90
13742;DHT22;8461;52.356;10.704;2022-07-10T09:11:59;16.60;99.90
13742;DHT22;8461;52.356;10.704;2022-07-10T09:14:27;16.60;99.90
13742;DHT22;8461;52.356;10.704;2022-07-10T09:16:53;16.80;99.90
13742;DHT22;8461;52.356;10.704;2022-07-10T09:19:26;17.00;99.90
13742;DHT22;8461;52.356;10.704;2022-07-10T09:22:14;17.10;99.90
13742;DHT22;8461;52.356;10.704;2022-07-10T09:24:45;17.30;99.90
13742;DHT22;8461;52.356;10.704;2022-07-10T09:27:14;17.70;99.90
13742;DHT22;8461;52.356;10.704;2022-07-10T09:29:50;17.50;99.90
13742;DHT22;8461;52.356;10.704;2022-07-10T09:32:20;17.50;99.90
13742;DHT22;8461;52.356;10.704;2022-07-10T09:34:48;17.30;99.90
13742;DHT22;8461;52.356;10.704;2022-07-10T09:37:28;17.30;99.90
13742;DHT22;8461;52.356;10.704;2022-07-10T09:42:33;17.10;99.90
13742;DHT22;8461;52.356;10.704;2022-07-10T09:52:58;17.70;99.90
13742;DHT22;8461;52.356;10.704;2022-07-10T09:55:29;18.00;99.90
13742;DHT22;8461;52.356;10.704;2022-07-10T09:57:58;18.00;99.90
13742;DHT22;8461;52.356;10.704;2022-07-10T10:00:27;17.90;99.90
13742;DHT22;8461;52.356;10.704;2022-07-10T10:03:04;17.80;99.90
13742;DHT22;8461;52.356;10.704;2022-07-10T10:05:43;17.90;99.90
13742;DHT22;8461;52.356;10.704;2022-07-10T10:08:12;17.60;99.90
13742;DHT22;8461;52.356;10.704;2022-07-10T10:10:43;17.60;99.90
13742;DHT22;8461;52.356;10.704;2022-07-10T10:13:11;17.70;99.90
13742;DHT22;8461;52.356;10.704;2022-07-10T10:15:37;17.90;99.90
13742;DHT22;8461;52.356;10.704;2022-07-10T10:18:03;18.20;99.90
13742;DHT22;8461;52.356;10.704;2022-07-10T10:20:30;18.30;99.90
13742;DHT22;8461;52.356;10.704;2022-07-10T10:23:04;18.20;99.90
13742;DHT22;8461;52.356;10.704;2022-07-10T10:25:32;18.10;99.90
13742;DHT22;8461;52.356;10.704;2022-07-10T10:28:00;18.00;99.90
13742;DHT22;8461;52.356;10.704;2022-07-10T10:30:26;18.00;99.90
13742;DHT22;8461;52.356;10.704;2022-07-10T10:32:52;18.30;99.90
13742;DHT22;8461;52.356;10.704;2022-07-10T10:35:50;18.30;99.90
13742;DHT22;8461;52.356;10.704;2022-07-10T10:38:16;18.60;99.90
13742;DHT22;8461;52.356;10.704;2022-07-10T10:40:42;18.80;99.90
13742;DHT22;8461;52.356;10.704;2022-07-10T10:45:45;19.20;99.20
13742;DHT22;8461;52.356;10.704;2022-07-10T10:48:16;19.30;99.10
13742;DHT22;8461;52.356;10.704;2022-07-10T10:50:53;18.90;99.60
13742;DHT22;8461;52.356;10.704;2022-07-10T10:53:25;19.00;99.90
13742;DHT22;8461;52.356;10.704;2022-07-10T10:58:39;18.60;99.90
13742;DHT22;8461;52.356;10.704;2022-07-10T11:01:26;18.50;99.90
13742;DHT22;8461;52.356;10.704;2022-07-10T11:09:22;18.60;99.90
13742;DHT22;8461;52.356;10.704;2022-07-10T11:12:10;18.80;99.90
13742;DHT22;8461;52.356;10.704;2022-07-10T11:14:39;18.90;97.20
13742;DHT22;8461;52.356;10.704;2022-07-10T11:17:06;19.00;97.70
13742;DHT22;8461;52.356;10.704;2022-07-10T11:19:33;19.10;97.80
13742;DHT22;8461;52.356;10.704;2022-07-10T11:22:03;19.50;97.60
13742;DHT22;8461;52.356;10.704;2022-07-10T11:24:59;19.80;97.60
13742;DHT22;8461;52.356;10.704;2022-07-10T11:27:34;19.70;96.60
13742;DHT22;8461;52.356;10.704;2022-07-10T11:30:02;19.50;97.50
13742;DHT22;8461;52.356;10.704;2022-07-10T11:32:28;19.30;97.30
13742;DHT22;8461;52.356;10.704;2022-07-10T11:34:54;18.90;96.50
13742;DHT22;8461;52.356;10.704;2022-07-10T11:37:20;18.80;97.20
13742;DHT22;8461;52.356;10.704;2022-07-10T11:39:46;18.80;97.50
13742;DHT22;8461;52.356;10.704;2022-07-10T11:42:11;19.00;97.70
13742;DHT22;8461;52.356;10.704;2022-07-10T11:44:37;19.20;97.50
13742;DHT22;8461;52.356;10.704;2022-07-10T11:47:03;19.40;97.90
13742;DHT22;8461;52.356;10.704;2022-07-10T11:49:29;19.40;97.70
13742;DHT22;8461;52.356;10.704;2022-07-10T11:52:01;19.50;97.70
13742;DHT22;8461;52.356;10.704;2022-07-10T11:54:27;19.50;97.10
13742;DHT22;8461;52.356;10.704;2022-07-10T11:56:53;19.70;97.70
13742;DHT22;8461;52.356;10.704;2022-07-10T11:59:27;19.90;97.30
13742;DHT22;8461;52.356;10.704;2022-07-10T12:01:54;20.00;96.70
13742;DHT22;8461;52.356;10.704;2022-07-10T12:04:22;20.30;97.10
13742;DHT22;8461;52.356;10.704;2022-07-10T12:06:49;20.60;94.20
13742;DHT22;8461;52.356;10.704;2022-07-10T12:09:18;20.60;93.30
13742;DHT22;8461;52.356;10.704;2022-07-10T12:12:01;20.40;93.30
13742;DHT22;8461;52.356;10.704;2022-07-10T12:14:28;19.90;94.40
13742;DHT22;8461;52.356;10.704;2022-07-10T12:16:55;20.00;95.60
13742;DHT22;8461;52.356;10.704;2022-07-10T12:19:25;20.00;96.10
13742;DHT22;8461;52.356;10.704;2022-07-10T12:21:53;20.10;96.40
13742;DHT22;8461;52.356;10.704;2022-07-10T12:24:19;20.10;95.80
13742;DHT22;8461;52.356;10.704;2022-07-10T12:26:46;20.30;96.30
13742;DHT22;8461;52.356;10.704;2022-07-10T12:29:32;20.10;95.20
13742;DHT22;8461;52.356;10.704;2022-07-10T12:31:59;20.40;95.90
13742;DHT22;8461;52.356;10.704;2022-07-10T12:34:41;20.20;95.40
13742;DHT22;8461;52.356;10.704;2022-07-10T12:37:13;19.80;96.30
13742;DHT22;8461;52.356;10.704;2022-07-10T12:39:53;19.70;96.50
13742;DHT22;8461;52.356;10.704;2022-07-10T12:42:29;19.50;96.40
13742;DHT22;8461;52.356;10.704;2022-07-10T12:45:09;19.70;96.50
13742;DHT22;8461;52.356;10.704;2022-07-10T12:47:48;19.80;96.20
13742;DHT22;8461;52.356;10.704;2022-07-10T12:50:15;19.90;95.60
13742;DHT22;8461;52.356;10.704;2022-07-10T12:52:42;19.90;95.70
13742;DHT22;8461;52.356;10.704;2022-07-10T12:55:19;19.80;95.60
13742;DHT22;8461;52.356;10.704;2022-07-10T12:57:54;19.80;95.70
13742;DHT22;8461;52.356;10.704;2022-07-10T13:00:31;19.70;95.80
13742;DHT22;8461;52.356;10.704;2022-07-10T13:03:08;19.60;96.00
13742;DHT22;8461;52.356;10.704;2022-07-10T13:05:36;19.40;95.80
13742;DHT22;8461;52.356;10.704;2022-07-10T13:08:18;19.30;96.10
13742;DHT22;8461;52.356;10.704;2022-07-10T13:10:52;19.20;96.80
13742;DHT22;8461;52.356;10.704;2022-07-10T13:13:18;19.60;96.30
13742;DHT22;8461;52.356;10.704;2022-07-10T13:15:45;19.80;96.10
13742;DHT22;8461;52.356;10.704;2022-07-10T13:18:26;20.20;95.60
13742;DHT22;8461;52.356;10.704;2022-07-10T13:20:57;20.50;95.80
13742;DHT22;8461;52.356;10.704;2022-07-10T13:23:24;20.50;95.50
13742;DHT22;8461;52.356;10.704;2022-07-10T13:25:53;20.10;96.10
13742;DHT22;8461;52.356;10.704;2022-07-10T13:28:20;20.30;95.90
13742;DHT22;8461;52.356;10.704;2022-07-10T13:30:46;20.40;95.30
13742;DHT22;8461;52.356;10.704;2022-07-10T13:33:12;20.40;95.30
13742;DHT22;8461;52.356;10.704;2022-07-10T13:35:38;20.50;95.20
13742;DHT22;8461;52.356;10.704;2022-07-10T13:38:04;20.60;96.20
13742;DHT22;8461;52.356;10.704;2022-07-10T13:40:32;21.00;95.50
13742;DHT22;8461;52.356;10.704;2022-07-10T13:42:58;21.00;94.40
13742;DHT22;8461;52.356;10.704;2022-07-10T13:45:24;20.80;94.10
13742;DHT22;8461;52.356;10.704;2022-07-10T13:47:51;20.50;94.20
13742;DHT22;8461;52.356;10.704;2022-07-10T13:50:20;20.40;94.70
13742;DHT22;8461;52.356;10.704;2022-07-10T13:52:46;20.20;95.00
13742;DHT22;8461;52.356;10.704;2022-07-10T13:55:11;19.80;95.40
13742;DHT22;8461;52.356;10.704;2022-07-10T13:57:38;19.80;95.80
13742;DHT22;8461;52.356;10.704;2022-07-10T14:00:04;19.80;95.30
13742;DHT22;8461;52.356;10.704;2022-07-10T14:02:30;20.00;95.70
13742;DHT22;8461;52.356;10.704;2022-07-10T14:04:55;20.30;96.30
13742;DHT22;8461;52.356;10.704;2022-07-10T14:07:21;20.40;94.40
13742;DHT22;8461;52.356;10.704;2022-07-10T14:09:46;20.20;94.90
13742;DHT22;8461;52.356;10.704;2022-07-10T14:12:12;20.10;95.20
13742;DHT22;8461;52.356;10.704;2022-07-10T14:14:37;20.10;95.10
13742;DHT22;8461;52.356;10.704;2022-07-10T14:17:03;20.00;95.20
13742;DHT22;8461;52.356;10.704;2022-07-10T14:19:29;20.20;95.90
13742;DHT22;8461;52.356;10.704;2022-07-10T14:21:54;20.40;95.40
13742;DHT22;8461;52.356;10.704;2022-07-10T14:24:20;20.40;95.50
13742;DHT22;8461;52.356;10.704;2022-07-10T14:26:46;20.60;95.50
13742;DHT22;8461;52.356;10.704;2022-07-10T14:29:12;20.60;95.80
13742;DHT22;8461;52.356;10.704;2022-07-10T14:31:38;20.90;96.00
13742;DHT22;8461;52.356;10.704;2022-07-10T14:34:04;21.10;95.50
13742;DHT22;8461;52.356;10.704;2022-07-10T14:36:30;20.90;95.20
13742;DHT22;8461;52.356;10.704;2022-07-10T14:38:56;20.60;94.90
13742;DHT22;8461;52.356;10.704;2022-07-10T14:41:23;20.30;95.70
13742;DHT22;8461;52.356;10.704;2022-07-10T14:43:48;20.00;96.40
13742;DHT22;8461;52.356;10.704;2022-07-10T14:46:14;20.10;96.80
13742;DHT22;8461;52.356;10.704;2022-07-10T14:48:39;20.20;97.00
13742;DHT22;8461;52.356;10.704;2022-07-10T14:51:05;20.10;96.80
13742;DHT22;8461;52.356;10.704;2022-07-10T14:53:33;20.10;96.30
13742;DHT22;8461;52.356;10.704;2022-07-10T14:56:02;20.10;96.60
13742;DHT22;8461;52.356;10.704;2022-07-10T14:58:27;20.30;96.40
13742;DHT22;8461;52.356;10.704;2022-07-10T15:00:53;20.30;96.00
13742;DHT22;8461;52.356;10.704;2022-07-10T15:03:19;20.40;96.30
13742;DHT22;8461;52.356;10.704;2022-07-10T15:05:45;20.10;96.40
13742;DHT22;8461;52.356;10.704;2022-07-10T15:08:10;19.70;96.50
13742;DHT22;8461;52.356;10.704;2022-07-10T15:10:36;19.50;97.10
13742;DHT22;8461;52.356;10.704;2022-07-10T15:13:02;19.60;97.60
13742;DHT22;8461;52.356;10.704;2022-07-10T15:15:31;19.90;97.00
13742;DHT22;8461;52.356;10.704;2022-07-10T15:17:56;20.10;96.70
13742;DHT22;8461;52.356;10.704;2022-07-10T15:20:22;20.10;96.80
13742;DHT22;8461;52.356;10.704;2022-07-10T15:22:47;19.80;97.30
13742;DHT22;8461;52.356;10.704;2022-07-10T15:25:13;20.00;97.20
13742;DHT22;8461;52.356;10.704;2022-07-10T15:27:39;20.20;96.90
13742;DHT22;8461;52.356;10.704;2022-07-10T15:30:05;20.40;96.20
13742;DHT22;8461;52.356;10.704;2022-07-10T15:32:31;20.40;96.10
13742;DHT22;8461;52.356;10.704;2022-07-10T15:34:56;20.40;95.50
13742;DHT22;8461;52.356;10.704;2022-07-10T15:37:22;20.20;96.20
13742;DHT22;8461;52.356;10.704;2022-07-10T15:39:49;20.20;96.00
13742;DHT22;8461;52.356;10.704;2022-07-10T15:42:14;20.00;96.50
13742;DHT22;8461;52.356;10.704;2022-07-10T15:44:40;20.10;96.20
13742;DHT22;8461;52.356;10.704;2022-07-10T15:47:06;20.10;96.10
13742;DHT22;8461;52.356;10.704;2022-07-10T15:49:31;19.80;96.40
13742;DHT22;8461;52.356;10.704;2022-07-10T15:51:58;19.50;96.70